Latest Weather Observations for Young

IDN60801

Issued at 9:03 am EST Tuesday 26 May 2015 (issued every 30 minutes, with the page automatically refreshed every 10 minutes)

About weather observations | Map of weather stations | Latest weather observations for NSW | Other Formats
Station Details ID: 073138 Name: YOUNG AIRPORT Lat: -34.25 Lon: 148.25 Height: 379.6 m
Data from the previous 72 hours. | See also: Recent months at Young
Date/Time
EST
Temp
°C
App
Temp
°C
Dew
Point
Rel
Hum
%
Delta-T
°C
Wind Press
QNH
hPa
Press
MSL
hPa
Rain
since 9 am
mm
Dir
 
Spd
km/h
Gust
km/h
Spd
kts
Gust
kts
26/09:00am 4.3 1.9 4.2 99 0.0 S 6 7 3 4 1029.8 1030.0 0.2
26/08:30am 2.6 -0.3 2.5 99 0.0 SW 7 9 4 5 1029.7 1029.9 0.2
26/08:00am 1.3 -2.6 1.2 99 0.0 SW 11 11 6 6 1029.6 1029.8 0.2
26/07:30am -0.7 -4.5 -0.8 99 0.0 SSW 9 11 5 6 1029.6 1029.8 0.0
26/07:00am -1.4 -4.9 -1.7 98 0.0 SSW 7 7 4 4 1029.4 1029.6 0.0
26/06:30am -1.0 -4.9 -1.3 98 0.1 SSW 9 9 5 5 1029.1 1029.3 0.0
26/06:00am -1.2 -4.7 -1.5 98 0.0 S 7 9 4 5 1029.2 1029.4 0.0
26/05:30am -0.9 -4.4 -1.0 99 0.0 S 7 9 4 5 1028.9 1029.1 0.0
26/05:00am -1.1 -4.4 -1.2 99 0.0 SSW 6 6 3 3 1028.9 1029.1 0.0
26/04:30am -1.0 -4.9 -1.3 98 0.1 S 9 11 5 6 1028.9 1029.1 0.0
26/04:00am -0.4 -3.8 -0.5 99 0.0 SSW 7 9 4 5 1028.8 1029.0 0.0
26/03:30am -0.4 -4.2 -0.5 99 0.0 SSW 9 11 5 6 1028.7 1028.9 0.0
26/03:00am -0.7 -4.2 -1.1 97 0.1 SSW 7 9 4 5 1029.1 1029.3 0.0
26/02:30am -0.1 -3.9 -0.4 98 0.1 S 9 9 5 5 1029.6 1029.8 0.0
26/02:00am -0.1 -3.4 -0.2 99 0.0 SSW 7 9 4 5 1029.5 1029.7 0.0
26/01:30am 0.1 -3.6 0.0 99 0.0 SSW 9 9 5 5 1029.6 1029.8 0.0
26/01:00am -0.1 -3.5 -0.5 97 0.1 S 7 9 4 5 1029.7 1029.9 0.0
26/12:30am -0.1 -3.3 -0.4 98 0.1 SW 6 7 3 4 1029.9 1030.1 0.0
26/12:00am -0.4 -3.9 -1.0 96 0.2 SSW 7 7 4 4 1030.1 1030.4 0.0
 
Date/Time
EST
Temp
°C
App
Temp
°C
Dew
Point
Rel
Hum
%
Delta-T
°C
Wind Press
QNH
hPa
Press
MSL
hPa
Rain
since 9 am
mm
Dir
 
Spd
km/h
Gust
km/h
Spd
kts
Gust
kts
25/11:30pm 0.8 -2.2 0.7 99 0.0 S 6 7 3 4 1030.2 1030.5 0.0
25/11:00pm -0.1 -3.9 -0.7 96 0.2 SSW 9 11 5 6 1030.0 1030.3 0.0
25/10:30pm 0.6 -2.5 0.3 98 0.1 SSW 6 9 3 5 1030.3 1030.6 0.0
25/10:00pm 0.6 -2.7 0.2 97 0.1 SW 7 9 4 5 1030.4 1030.7 0.0
25/09:30pm 1.2 -2.0 0.8 97 0.2 SSW 7 11 4 6 1030.5 1030.8 0.0
25/09:00pm 1.6 -1.6 1.0 96 0.2 SW 7 7 4 4 1030.3 1030.6 0.0
25/08:30pm 2.2 -0.9 1.5 95 0.3 S 7 9 4 5 1030.2 1030.5 0.0
25/08:00pm 3.1 0.4 2.4 95 0.3 SSW 6 7 3 4 1030.2 1030.5 0.0
25/07:30pm 4.0 1.2 3.1 94 0.4 S 7 9 4 5 1030.1 1030.4 0.0
25/07:00pm 5.2 3.5 4.0 92 0.5 SSW 2 7 1 4 1029.8 1030.0 0.0
25/06:30pm 5.9 4.3 4.5 91 0.6 SW 2 6 1 3 1029.7 1029.9 0.0
25/06:00pm 6.6 4.2 5.2 91 0.6 SW 7 9 4 5 1029.5 1029.7 0.0
25/05:30pm 7.1 4.9 5.3 88 0.8 S 6 7 3 4 1029.3 1029.5 0.0
25/05:00pm 9.3 7.2 6.0 80 1.5 SW 6 7 3 4 1029.1 1029.3 0.0
25/04:30pm 11.6 10.8 6.7 72 2.4 CALM 0 0 0 0 1028.9 1029.1 0.0
25/04:00pm 13.0 11.4 6.4 64 3.2 SSE 4 7 2 4 1029.4 1029.6 0.0
25/03:30pm 14.0 12.0 6.4 60 3.7 S 6 9 3 5 1029.6 1029.8 0.0
25/03:00pm 14.4 11.5 6.7 60 3.8 SSW 11 15 6 8 1029.6 1029.8 0.0
25/02:30pm 14.9 12.8 6.7 58 4.1 SW 7 11 4 6 1029.6 1029.8 0.0
25/02:00pm 14.8 12.8 7.1 60 3.8 WSW 7 11 4 6 1029.8 1030.0 0.0
25/01:30pm 15.0 12.6 6.8 58 4.1 SW 9 13 5 7 1030.0 1030.3 0.0
25/01:00pm 15.2 13.0 6.2 55 4.4 WNW 7 13 4 7 1030.2 1030.5 0.0
25/12:30pm 15.0 13.0 7.1 59 4.0 NNW 7 15 4 8 1030.6 1030.9 0.0
25/12:00pm 13.9 13.4 7.9 67 3.0 CALM 0 0 0 0 1031.4 1031.6 0.0
25/11:30am 12.7 11.9 6.5 66 3.0 CALM 0 0 0 0 1031.6 1031.8 0.0
25/11:00am 11.7 10.9 6.6 71 2.4 CALM 0 0 0 0 1031.9 1032.1 0.0
25/10:30am 10.6 9.0 6.4 75 2.0 SSE 4 7 2 4 1031.8 1032.0 0.0
25/10:00am 9.5 7.8 5.7 77 1.8 SSW 4 7 2 4 1031.8 1032.0 0.0
25/09:30am 7.9 5.7 6.2 89 0.8 S 7 9 4 5 1031.8 1032.0 0.0
25/09:00am 6.3 3.8 4.9 91 0.6 SSW 7 7 4 4 1032.0 1032.2 0.0
25/08:30am 4.8 2.2 4.4 97 0.2 SW 7 11 4 6 1032.1 1032.3 0.0
25/08:00am 2.9 -0.4 2.6 98 0.1 SSW 9 11 5 6 1031.9 1032.1 0.0
25/07:30am 1.8 -1.3 1.5 98 0.1 SSW 7 9 4 5 1031.9 1032.1 0.0
25/07:00am 2.2 -1.2 1.9 98 0.1 SSW 9 9 5 5 1031.7 1031.9 0.0
25/06:30am 1.9 -1.2 1.5 97 0.2 SSW 7 11 4 6 1031.6 1031.8 0.0
25/06:00am 2.3 -1.0 2.2 99 0.0 SSW 9 9 5 5 1031.2 1031.5 0.0
25/05:30am 2.0 -1.0 1.9 99 0.0 SSW 7 7 4 4 1031.1 1031.4 0.0
25/05:00am 1.3 -1.7 1.0 98 0.1 S 6 7 3 4 1030.9 1031.2 0.0
25/04:30am 1.4 -1.6 1.1 98 0.1 S 6 7 3 4 1031.0 1031.3 0.0
25/04:00am 1.1 -2.1 0.7 97 0.2 SSW 7 9 4 5 1030.6 1030.9 0.0
25/03:30am 1.6 -1.5 1.3 98 0.1 S 7 9 4 5 1030.8 1031.1 0.0
25/03:00am 1.2 -2.4 0.8 97 0.2 S 9 11 5 6 1031.1 1031.4 0.0
25/02:30am 1.1 -1.9 0.7 97 0.2 SSW 6 7 3 4 1031.2 1031.5 0.0
25/02:00am 1.7 -1.7 1.6 99 0.0 SW 9 11 5 6 1031.5 1031.7 0.0
25/01:30am 0.9 -2.7 0.6 98 0.1 S 9 9 5 5 1031.6 1031.8 0.0
25/01:00am 0.3 -3.4 0.0 98 0.1 S 9 9 5 5 1031.5 1031.7 0.0
25/12:30am 0.2 -3.1 -0.1 98 0.1 SSW 7 9 4 5 1031.5 1031.7 0.0
25/12:00am 0.1 -3.3 -0.3 97 0.2 S 7 9 4 5 1031.7 1031.9 0.0
 
Date/Time
EST
Temp
°C
App
Temp
°C
Dew
Point
Rel
Hum
%
Delta-T
°C
Wind Press
QNH
hPa
Press
MSL
hPa
Rain
since 9 am
mm
Dir
 
Spd
km/h
Gust
km/h
Spd
kts
Gust
kts
24/11:30pm 0.5 -2.8 0.1 97 0.1 SSW 7 7 4 4 1032.0 1032.2 0.0
24/11:00pm 1.3 -1.9 0.9 97 0.2 S 7 9 4 5 1032.0 1032.2 0.0
24/10:30pm 1.5 -1.5 0.9 96 0.2 S 6 7 3 4 1032.0 1032.2 0.0
24/10:00pm 1.7 -1.5 0.8 94 0.3 SSW 7 9 4 5 1031.9 1032.1 0.0
24/09:30pm 2.6 -0.3 1.7 94 0.4 SSW 6 7 3 4 1031.8 1032.0 0.0
24/09:00pm 3.5 0.6 2.8 95 0.3 SSW 7 9 4 5 1031.6 1031.8 0.0
24/08:30pm 3.3 0.3 2.3 93 0.4 S 7 9 4 5 1031.6 1031.8 0.0
24/08:00pm 4.3 1.7 3.1 92 0.5 SSW 6 9 3 5 1031.6 1031.8 0.0
24/07:30pm 4.3 1.7 3.0 91 0.5 SSW 6 7 3 4 1031.4 1031.6 0.0
24/07:00pm 4.8 2.2 3.1 89 0.7 SSW 6 7 3 4 1031.2 1031.5 0.0
24/06:30pm 5.5 3.8 4.0 90 0.6 SSW 2 6 1 3 1030.7 1031.0 0.0
24/06:00pm 6.5 4.0 3.5 81 1.3 SW 6 7 3 4 1030.5 1030.8 0.0
24/05:30pm 7.3 6.0 3.9 79 1.5 CALM 0 0 0 0 1030.2 1030.5 0.0
24/05:00pm 10.5 9.1 5.5 71 2.3 NNE 2 6 1 3 1030.2 1030.5 0.0
24/04:30pm 12.3 10.5 7.0 70 2.6 N 6 7 3 4 1030.0 1030.3 0.0
24/04:00pm 14.5 13.0 4.8 52 4.6 NNW 2 9 1 5 1030.1 1030.4 0.0
24/03:30pm 16.4 14.8 2.4 39 6.4 CALM 0 0 0 0 1030.1 1030.4 0.0
24/03:00pm 16.3 14.6 2.0 38 6.5 CALM 0 0 0 0 1030.1 1030.4 0.0
24/02:30pm 16.4 13.9 3.5 42 6.1 NNE 6 11 3 6 1030.3 1030.6 0.0
24/02:00pm 16.2 13.2 1.9 38 6.4 NW 7 9 4 5 1030.4 1030.7 0.0
24/01:30pm 16.1 13.3 2.2 39 6.3 W 6 11 3 6 1030.4 1030.7 0.0
24/01:00pm 15.9 13.4 4.0 45 5.6 NNW 6 11 3 6 1030.8 1031.1 0.0
24/12:30pm 15.1 12.2 4.5 49 5.0 NW 9 15 5 8 1031.4 1031.6 0.0
24/12:00pm 14.3 12.1 5.4 55 4.2 NNW 6 11 3 6 1031.6 1031.8 0.0
24/11:30am 14.2 12.2 6.3 59 3.9 NNE 6 9 3 5 1031.9 1032.1 0.0
24/11:00am 13.4 12.3 6.7 64 3.3 N 2 7 1 4 1032.2 1032.4 0.0
24/10:30am 11.4 9.9 6.7 73 2.3 SE 4 7 2 4 1032.4 1032.7 0.0
24/10:00am 9.9 7.8 6.6 80 1.6 SE 7 11 4 6 1032.3 1032.6 0.0
24/09:30am 7.4 5.1 5.5 88 0.9 S 7 9 4 5 1032.1 1032.3 0.0
24/09:00am 5.5 3.0 4.9 96 0.3 SSW 7 9 4 5 1031.9 1032.1 0.2
24/08:30am 2.2 -0.8 1.9 98 0.1 SSW 7 9 4 5 1031.7 1031.9 0.2
24/08:00am -0.1 -3.3 -0.5 97 0.1 S 6 7 3 4 1031.7 1031.9 0.0
24/07:30am -1.9 -5.3 -2.3 97 0.1 S 6 7 3 4 1031.4 1031.6 0.0
24/07:00am -2.1 -5.8 -2.5 97 0.0 S 7 7 4 4 1031.0 1031.3 0.0
24/06:30am -2.0 -5.6 -2.3 98 0.0 SW 7 9 4 5 1030.7 1031.0 0.0
24/06:00am -2.2 -5.7 -2.7 96 0.1 SSW 6 7 3 4 1030.4 1030.7 0.0
24/05:30am -1.2 -5.1 -1.3 99 0.0 SW 9 11 5 6 1030.2 1030.5 0.0
24/05:00am -1.9 -5.9 -2.3 97 0.1 S 9 11 5 6 1030.1 1030.4 0.0
24/04:30am -1.8 -5.4 -2.2 97 0.1 SSW 7 11 4 6 1029.9 1030.1 0.0
24/04:00am -1.2 -4.7 -1.5 98 0.0 SSW 7 7 4 4 1029.9 1030.1 0.0
24/03:30am -1.5 -5.1 -1.9 97 0.1 S 7 7 4 4 1030.0 1030.3 0.0
24/03:00am -1.7 -5.1 -2.3 96 0.1 SSW 6 7 3 4 1030.0 1030.3 0.0
24/02:30am -1.0 -4.5 -1.4 97 0.1 SSW 7 9 4 5 1030.1 1030.4 0.0
24/02:00am -0.7 -4.2 -1.0 98 0.1 SSW 7 9 4 5 1029.9 1030.1 0.0
24/01:30am -0.8 -4.3 -1.2 97 0.1 SSW 7 9 4 5 1030.0 1030.3 0.0
24/01:00am -0.3 -3.7 -0.7 97 0.1 SSW 7 7 4 4 1030.0 1030.3 0.0
24/12:30am -0.5 -4.0 -1.1 96 0.2 SSW 7 7 4 4 1030.0 1030.3 0.0
24/12:00am 0.4 -3.3 0.0 97 0.1 S 9 9 5 5 1030.1 1030.4 0.0
 
Date/Time
EST
Temp
°C
App
Temp
°C
Dew
Point
Rel
Hum
%
Delta-T
°C
Wind Press
QNH
hPa
Press
MSL
hPa
Rain
since 9 am
mm
Dir
 
Spd
km/h
Gust
km/h
Spd
kts
Gust
kts
23/11:30pm 0.0 -3.4 -0.6 96 0.2 S 7 9 4 5 1030.0 1030.3 0.0
23/11:00pm 0.5 -3.2 -0.2 95 0.3 S 9 9 5 5 1029.8 1030.0 0.0
23/10:30pm 0.8 -2.3 0.2 96 0.2 SSW 6 9 3 5 1030.0 1030.3 0.0
23/10:00pm 1.0 -2.3 0.4 96 0.2 SSW 7 9 4 5 1030.1 1030.4 0.0
23/09:30pm 1.1 -2.2 0.4 95 0.3 SSW 7 9 4 5 1030.2 1030.5 0.0
23/09:00pm 2.2 -0.9 1.5 95 0.3 S 7 9 4 5 1030.2 1030.5 0.0
23/08:30pm 2.5 -0.6 1.6 94 0.4 S 7 9 4 5 1030.2 1030.5 0.0
23/08:00pm 3.2 0.2 2.3 94 0.4 S 7 7 4 4 1030.0 1030.3 0.0
23/07:30pm 4.0 1.2 3.1 94 0.4 SSW 7 9 4 5 1029.8 1030.0 0.0
23/07:00pm 4.2 2.7 3.0 92 0.5 CALM 0 0 0 0 1029.5 1029.7 0.0
23/06:30pm 4.8 3.3 2.8 87 0.8 CALM 0 0 0 0 1029.4 1029.6 0.0
23/06:00pm 6.2 3.7 4.0 86 1.0 WSW 6 6 3 3 1029.3 1029.5 0.0
23/05:30pm 8.0 5.4 4.2 77 1.7 SW 7 9 4 5 1029.1 1029.3 0.0
23/05:00pm 11.2 8.7 4.9 65 2.9 SW 7 9 4 5 1029.0 1029.2 0.0
23/04:30pm 13.5 10.6 4.6 55 4.2 SW 9 13 5 7 1028.9 1029.1 0.0
23/04:00pm 14.6 11.9 5.4 54 4.4 SW 9 13 5 7 1028.8 1029.0 0.0
23/03:30pm 14.5 11.3 5.3 54 4.4 SW 11 15 6 8 1028.8 1029.0 0.0
23/03:00pm 14.5 11.6 4.8 52 4.6 SW 9 15 5 8 1028.7 1028.9 0.0
23/02:30pm 14.8 11.5 4.8 51 4.8 SW 11 17 6 9 1028.8 1029.0 0.0
23/02:00pm 14.6 11.3 4.3 50 4.8 SW 11 15 6 8 1028.9 1029.1 0.0
23/01:30pm 14.5 10.8 4.5 51 4.7 SSW 13 19 7 10 1029.1 1029.3 0.0
23/01:00pm 14.3 11.3 4.3 51 4.7 SW 9 17 5 9 1029.3 1029.5 0.0
23/12:30pm 14.6 13.0 4.6 51 4.7 SE 2 9 1 5 1029.3 1029.5 0.0
23/12:00pm 13.5 10.6 4.6 55 4.2 S 9 13 5 7 1029.7 1029.9 0.0
23/11:30am 12.7 9.6 3.6 54 4.2 ESE 9 13 5 7 1030.1 1030.4 0.0
23/11:00am 11.9 8.0 3.2 55 3.9 ESE 13 19 7 10 1030.4 1030.7 0.0
23/10:30am 11.8 8.7 3.8 58 3.6 E 9 13 5 7 1030.7 1031.0 0.0
23/10:00am 10.6 7.4 3.2 60 3.3 E 9 13 5 7 1030.7 1031.0 0.0
23/09:30am 9.8 6.3 3.3 64 2.9 E 11 15 6 8 1030.7 1031.0 0.0

Other Formats:

Comma delimited format used in spreadsheet applications
http://www.bom.gov.au/fwo/IDN60801/IDN60801.94712.axf

JavaScript Object Notation format (JSON) in row-major order
http://www.bom.gov.au/fwo/IDN60801/IDN60801.94712.json